createdAt,value
2022-11-22T00:00:07.138Z,977.39
2022-11-22T00:01:07.178Z,977.36
2022-11-22T00:02:07.232Z,977.39
2022-11-22T00:03:07.081Z,977.40
2022-11-22T00:04:07.073Z,977.35
2022-11-22T00:05:07.097Z,977.30
2022-11-22T00:06:07.099Z,977.27
2022-11-22T00:07:07.069Z,977.26
2022-11-22T00:08:07.041Z,977.26
2022-11-22T00:09:07.096Z,977.25
2022-11-22T00:10:06.996Z,977.20
2022-11-22T00:11:06.994Z,977.24
2022-11-22T00:12:07.044Z,977.24
2022-11-22T00:13:06.965Z,977.21
2022-11-22T00:14:06.993Z,977.24
2022-11-22T00:15:06.935Z,977.24
2022-11-22T00:16:06.934Z,977.28
2022-11-22T00:17:06.917Z,977.29
2022-11-22T00:18:06.947Z,977.23
2022-11-22T00:19:06.907Z,977.28
2022-11-22T00:20:06.930Z,977.20
2022-11-22T00:21:06.869Z,977.21
2022-11-22T00:22:06.873Z,977.19
2022-11-22T00:23:06.918Z,977.13
2022-11-22T00:24:06.855Z,977.06
2022-11-22T00:25:06.825Z,977.09
2022-11-22T00:26:06.834Z,977.11
2022-11-22T00:27:06.819Z,976.99
2022-11-22T00:28:06.820Z,976.98
2022-11-22T00:29:06.827Z,977.01
2022-11-22T00:30:06.873Z,976.94
2022-11-22T00:31:06.766Z,976.94
2022-11-22T00:32:06.748Z,976.91
2022-11-22T00:33:06.740Z,976.91
2022-11-22T00:34:06.737Z,976.96
2022-11-22T00:35:06.727Z,976.90
2022-11-22T00:36:06.717Z,976.87
2022-11-22T00:37:06.694Z,976.88
2022-11-22T00:38:06.677Z,976.86
2022-11-22T00:39:06.663Z,976.82
2022-11-22T00:40:06.756Z,976.85
2022-11-22T00:41:06.665Z,976.83
2022-11-22T00:42:06.626Z,976.77
2022-11-22T00:43:06.628Z,976.77
2022-11-22T00:44:06.614Z,976.82
2022-11-22T00:45:06.597Z,976.79
2022-11-22T00:46:06.699Z,976.83
2022-11-22T00:47:06.567Z,976.81
2022-11-22T00:48:06.558Z,976.79
2022-11-22T00:49:06.579Z,976.79
2022-11-22T00:50:06.542Z,976.82
2022-11-22T00:51:06.528Z,976.82
2022-11-22T00:52:06.541Z,976.82
2022-11-22T00:53:06.518Z,976.80
2022-11-22T00:54:06.489Z,976.81
2022-11-22T00:55:06.514Z,976.81
2022-11-22T00:56:06.494Z,976.77
2022-11-22T00:57:06.490Z,976.73
2022-11-22T00:58:06.449Z,976.73
2022-11-22T00:59:06.438Z,976.71
2022-11-22T01:00:06.436Z,976.71
2022-11-22T01:01:06.458Z,976.70
2022-11-22T01:02:06.404Z,976.63
2022-11-22T01:03:06.420Z,976.60
2022-11-22T01:04:06.387Z,976.68
2022-11-22T01:05:06.372Z,976.69
2022-11-22T01:06:06.358Z,976.72
2022-11-22T01:07:06.371Z,976.65
2022-11-22T01:08:06.397Z,976.72
2022-11-22T01:09:06.530Z,976.70
2022-11-22T01:10:06.314Z,976.67
2022-11-22T01:11:06.308Z,976.65
2022-11-22T01:12:06.348Z,976.67
2022-11-22T01:13:06.282Z,976.65
2022-11-22T01:14:06.288Z,976.71
2022-11-22T01:15:06.249Z,976.71
2022-11-22T01:16:06.240Z,976.69
2022-11-22T01:17:06.242Z,976.68
2022-11-22T01:18:06.223Z,976.67
2022-11-22T01:19:06.211Z,976.72
2022-11-22T01:20:06.215Z,976.68
2022-11-22T01:21:06.243Z,976.68
2022-11-22T01:22:06.187Z,976.65
2022-11-22T01:23:06.181Z,976.62
2022-11-22T01:24:06.155Z,976.69
2022-11-22T01:25:06.184Z,976.66
2022-11-22T01:26:06.182Z,976.71
2022-11-22T01:27:06.114Z,976.69
2022-11-22T01:28:06.112Z,976.74
2022-11-22T01:29:06.099Z,976.68
2022-11-22T01:30:06.102Z,976.75
2022-11-22T01:31:06.092Z,976.80
2022-11-22T01:32:06.093Z,976.82
2022-11-22T01:33:06.044Z,976.86
2022-11-22T01:34:06.032Z,976.80
2022-11-22T01:35:06.024Z,976.78
2022-11-22T01:36:06.051Z,976.80
2022-11-22T01:37:05.999Z,976.81
2022-11-22T01:38:06.004Z,976.89
2022-11-22T01:39:05.978Z,976.85
2022-11-22T01:40:06.006Z,976.87
2022-11-22T01:41:05.977Z,976.82
2022-11-22T01:42:05.946Z,976.81
2022-11-22T01:43:05.982Z,976.83
2022-11-22T01:44:05.941Z,976.90
2022-11-22T01:45:05.914Z,976.85
2022-11-22T01:46:05.926Z,976.93
2022-11-22T01:47:05.897Z,976.89
2022-11-22T01:48:05.864Z,976.86
2022-11-22T01:49:05.885Z,976.83
2022-11-22T01:50:05.852Z,976.77
2022-11-22T01:51:05.875Z,976.69
2022-11-22T01:52:05.851Z,976.59
2022-11-22T01:53:05.820Z,976.58
2022-11-22T01:54:05.820Z,976.73
2022-11-22T01:55:05.820Z,976.81
2022-11-22T01:56:05.804Z,976.85
2022-11-22T01:57:05.810Z,976.87
2022-11-22T01:58:05.772Z,976.89
2022-11-22T01:59:05.796Z,976.93
2022-11-22T02:00:05.756Z,976.93
2022-11-22T02:01:05.818Z,977.08
2022-11-22T02:02:05.723Z,977.03
2022-11-22T02:03:05.700Z,976.95
2022-11-22T02:04:05.686Z,977.06
2022-11-22T02:05:05.687Z,977.09
2022-11-22T02:06:05.696Z,977.12
2022-11-22T02:07:05.689Z,977.15
2022-11-22T02:08:05.638Z,977.12
2022-11-22T02:09:05.627Z,977.16
2022-11-22T02:10:05.639Z,977.14
2022-11-22T02:11:05.613Z,977.12
2022-11-22T02:12:05.691Z,977.11
2022-11-22T02:13:05.627Z,977.12
2022-11-22T02:14:05.568Z,977.12
2022-11-22T02:15:05.565Z,977.15
2022-11-22T02:16:05.550Z,977.08
2022-11-22T02:17:05.555Z,977.14
2022-11-22T02:18:05.562Z,977.10
2022-11-22T02:19:05.522Z,977.17
2022-11-22T02:20:05.515Z,977.26
2022-11-22T02:21:05.488Z,977.18
2022-11-22T02:22:05.622Z,977.21
2022-11-22T02:23:05.518Z,977.16
2022-11-22T02:24:05.463Z,977.19
2022-11-22T02:25:05.499Z,977.10
2022-11-22T02:26:05.436Z,977.13
2022-11-22T02:27:05.443Z,977.15
2022-11-22T02:28:05.412Z,977.13
2022-11-22T02:29:05.432Z,977.07
2022-11-22T02:30:05.391Z,977.14
2022-11-22T02:31:05.368Z,977.11
2022-11-22T02:32:05.359Z,977.10
2022-11-22T02:33:05.370Z,977.13
2022-11-22T02:34:05.348Z,977.13
2022-11-22T02:35:05.351Z,977.15
2022-11-22T02:36:05.322Z,977.22
2022-11-22T02:37:05.301Z,977.23
2022-11-22T02:38:05.299Z,977.16
2022-11-22T02:39:05.615Z,977.21
2022-11-22T02:40:05.333Z,977.22
2022-11-22T02:41:05.282Z,977.22
2022-11-22T02:42:05.256Z,977.27
2022-11-22T02:43:05.230Z,977.31
2022-11-22T02:44:05.219Z,977.30
2022-11-22T02:45:05.211Z,977.19
2022-11-22T02:46:05.218Z,977.20
2022-11-22T02:47:05.223Z,977.17
2022-11-22T02:48:05.174Z,977.21
2022-11-22T02:49:05.185Z,977.11
2022-11-22T02:50:05.151Z,977.07
2022-11-22T02:51:05.151Z,977.19
2022-11-22T02:52:05.124Z,977.20
2022-11-22T02:53:05.153Z,977.22
2022-11-22T02:54:05.101Z,977.12
2022-11-22T02:55:05.103Z,977.18
2022-11-22T02:56:05.082Z,977.12
2022-11-22T02:57:05.129Z,977.10
2022-11-22T02:58:05.095Z,977.07
2022-11-22T02:59:05.083Z,977.07
2022-11-22T03:00:05.042Z,977.11
2022-11-22T03:01:05.088Z,977.16
2022-11-22T03:02:05.034Z,977.17
2022-11-22T03:03:04.997Z,977.25
2022-11-22T03:04:05.018Z,977.19
2022-11-22T03:05:04.990Z,977.27
2022-11-22T03:06:05.013Z,977.27
2022-11-22T03:07:05.057Z,977.24
2022-11-22T03:08:04.985Z,977.27
2022-11-22T03:09:04.940Z,977.26
2022-11-22T03:10:04.963Z,977.29
2022-11-22T03:11:04.916Z,977.26
2022-11-22T03:12:04.923Z,977.28
2022-11-22T03:13:04.883Z,977.25
2022-11-22T03:14:04.887Z,977.26
2022-11-22T03:15:04.865Z,977.25
2022-11-22T03:16:05.195Z,977.20
2022-11-22T03:17:04.836Z,977.12
2022-11-22T03:18:04.837Z,977.16
2022-11-22T03:19:04.824Z,977.25
2022-11-22T03:20:04.832Z,977.22
2022-11-22T03:21:04.835Z,977.18
2022-11-22T03:22:04.862Z,977.18
2022-11-22T03:23:04.766Z,977.18
2022-11-22T03:24:04.786Z,977.15
2022-11-22T03:25:04.745Z,977.14
2022-11-22T03:26:04.778Z,977.18
2022-11-22T03:27:04.760Z,977.31
2022-11-22T03:28:04.736Z,977.30
2022-11-22T03:29:04.707Z,977.23
2022-11-22T03:30:04.698Z,977.35
2022-11-22T03:31:04.705Z,977.35
2022-11-22T03:32:04.669Z,977.36
2022-11-22T03:33:04.686Z,977.33
2022-11-22T03:34:04.652Z,977.39
2022-11-22T03:35:04.637Z,977.45
2022-11-22T03:36:04.625Z,977.47
2022-11-22T03:37:04.607Z,977.49
2022-11-22T03:38:04.606Z,977.47
2022-11-22T03:39:04.667Z,977.49
2022-11-22T03:40:04.582Z,977.41
2022-11-22T03:41:04.590Z,977.44
2022-11-22T03:42:04.568Z,977.47
2022-11-22T03:43:04.558Z,977.45
2022-11-22T03:44:04.540Z,977.39
2022-11-22T03:45:04.632Z,977.44
2022-11-22T03:46:04.513Z,977.43
2022-11-22T03:47:04.497Z,977.36
2022-11-22T03:48:04.493Z,977.42
2022-11-22T03:49:04.467Z,977.44
2022-11-22T03:50:04.470Z,977.45
2022-11-22T03:51:04.489Z,977.47
2022-11-22T03:52:04.469Z,977.50
2022-11-22T03:53:04.449Z,977.47
2022-11-22T03:54:04.420Z,977.47
2022-11-22T03:55:04.448Z,977.53
2022-11-22T03:56:04.390Z,977.57
2022-11-22T03:57:04.449Z,977.61
2022-11-22T03:58:04.393Z,977.65
2022-11-22T03:59:04.424Z,977.65
2022-11-22T04:00:04.370Z,977.70
2022-11-22T04:01:04.391Z,977.63
2022-11-22T04:02:04.478Z,977.63
2022-11-22T04:03:04.310Z,977.62
2022-11-22T04:04:04.328Z,977.69
2022-11-22T04:05:04.288Z,977.76
2022-11-22T04:06:04.299Z,977.80
2022-11-22T04:07:04.345Z,977.75
2022-11-22T04:08:04.271Z,977.75
2022-11-22T04:09:04.302Z,977.83
2022-11-22T04:10:04.294Z,977.75
2022-11-22T04:11:04.212Z,977.78
2022-11-22T04:12:04.250Z,977.77
2022-11-22T04:13:04.202Z,977.76
2022-11-22T04:14:04.204Z,977.71
2022-11-22T04:15:04.188Z,977.73
2022-11-22T04:16:04.164Z,977.70
2022-11-22T04:17:04.174Z,977.74
2022-11-22T04:18:04.135Z,977.67
2022-11-22T04:19:04.139Z,977.73
2022-11-22T04:20:04.155Z,977.75
2022-11-22T04:21:04.132Z,977.71
2022-11-22T04:22:04.082Z,977.76
2022-11-22T04:23:04.082Z,977.83
2022-11-22T04:24:04.064Z,977.79
2022-11-22T04:25:04.067Z,977.76
2022-11-22T04:26:04.063Z,977.75
2022-11-22T04:27:04.031Z,977.79
2022-11-22T04:28:04.013Z,977.75
2022-11-22T04:29:09.711Z,977.72
2022-11-22T04:30:04.985Z,977.76
2022-11-22T04:31:04.011Z,977.73
2022-11-22T04:32:04.008Z,977.80
2022-11-22T04:33:03.961Z,977.82
2022-11-22T04:34:03.952Z,977.72
2022-11-22T04:35:03.938Z,977.77
2022-11-22T04:36:07.686Z,977.69
2022-11-22T04:37:04.937Z,977.67
2022-11-22T04:38:03.903Z,977.76
2022-11-22T04:39:03.888Z,977.68
2022-11-22T04:40:03.875Z,977.74
2022-11-22T04:41:03.889Z,977.77
2022-11-22T04:42:03.891Z,977.76
2022-11-22T04:43:03.855Z,977.72
2022-11-22T04:44:03.883Z,977.74
2022-11-22T04:45:03.840Z,977.69
2022-11-22T04:46:03.815Z,977.68
2022-11-22T04:47:03.839Z,977.72
2022-11-22T04:48:03.808Z,977.74
2022-11-22T04:49:03.793Z,977.68
2022-11-22T04:50:03.768Z,977.66
2022-11-22T04:51:03.763Z,977.63
2022-11-22T04:52:03.763Z,977.60
2022-11-22T04:53:03.760Z,977.63
2022-11-22T04:54:03.750Z,977.65
2022-11-22T04:55:03.771Z,977.62
2022-11-22T04:56:03.709Z,977.62
2022-11-22T04:57:03.685Z,977.69
2022-11-22T04:58:03.697Z,977.66
2022-11-22T04:59:03.660Z,977.66
2022-11-22T05:00:03.713Z,977.72
2022-11-22T05:01:03.718Z,977.75
2022-11-22T05:02:03.651Z,977.75
2022-11-22T05:03:03.618Z,977.82
2022-11-22T05:04:03.628Z,977.81
2022-11-22T05:05:03.692Z,977.78
2022-11-22T05:06:03.588Z,977.80
2022-11-22T05:07:03.620Z,977.83
2022-11-22T05:08:03.568Z,977.87
2022-11-22T05:09:03.537Z,977.87
2022-11-22T05:10:03.536Z,977.84
2022-11-22T05:11:03.583Z,977.85
2022-11-22T05:12:03.520Z,977.85
2022-11-22T05:13:03.499Z,977.89
2022-11-22T05:14:03.488Z,977.95
2022-11-22T05:15:03.500Z,977.86
2022-11-22T05:16:03.483Z,977.94
2022-11-22T05:17:03.478Z,977.95
2022-11-22T05:18:03.453Z,978.00
2022-11-22T05:19:03.444Z,977.96
2022-11-22T05:20:03.448Z,977.96
2022-11-22T05:21:03.409Z,978.01
2022-11-22T05:22:03.410Z,978.04
2022-11-22T05:23:03.417Z,978.01
2022-11-22T05:24:03.392Z,978.02
2022-11-22T05:25:03.379Z,978.05
2022-11-22T05:26:03.368Z,978.07
2022-11-22T05:27:03.355Z,978.08
2022-11-22T05:28:03.416Z,978.04
2022-11-22T05:29:03.320Z,978.04
2022-11-22T05:30:03.359Z,978.07
2022-11-22T05:31:03.313Z,978.11
2022-11-22T05:32:03.279Z,978.06
2022-11-22T05:33:03.282Z,978.08
2022-11-22T05:34:03.292Z,978.11
2022-11-22T05:35:03.269Z,978.12
2022-11-22T05:36:03.267Z,978.13
2022-11-22T05:37:03.252Z,978.16
2022-11-22T05:38:03.211Z,978.20
2022-11-22T05:39:03.282Z,978.16
2022-11-22T05:40:03.233Z,978.15
2022-11-22T05:41:03.185Z,978.12
2022-11-22T05:42:03.192Z,978.16
2022-11-22T05:43:03.164Z,978.16
2022-11-22T05:44:03.323Z,978.10
2022-11-22T05:45:03.169Z,978.11
2022-11-22T05:46:03.140Z,978.15
2022-11-22T05:47:03.172Z,978.10
2022-11-22T05:48:03.099Z,978.21
2022-11-22T05:49:03.103Z,978.18
2022-11-22T05:50:03.085Z,978.14
2022-11-22T05:51:03.094Z,978.24
2022-11-22T05:52:03.058Z,978.25
2022-11-22T05:53:03.041Z,978.31
2022-11-22T05:54:03.089Z,978.32
2022-11-22T05:55:03.015Z,978.36
2022-11-22T05:56:03.023Z,978.36
2022-11-22T05:57:02.996Z,978.35
2022-11-22T05:58:03.006Z,978.39
2022-11-22T05:59:02.995Z,978.43
2022-11-22T06:00:03.090Z,978.38
2022-11-22T06:01:02.958Z,978.40
2022-11-22T06:02:03.017Z,978.42
2022-11-22T06:03:02.982Z,978.40
2022-11-22T06:04:02.931Z,978.43
2022-11-22T06:05:02.956Z,978.40
2022-11-22T06:06:02.916Z,978.42
2022-11-22T06:07:08.347Z,978.48
2022-11-22T06:08:03.947Z,978.43
2022-11-22T06:09:02.887Z,978.42
2022-11-22T06:10:02.844Z,978.45
2022-11-22T06:11:02.825Z,978.42
2022-11-22T06:12:02.838Z,978.51
2022-11-22T06:13:02.840Z,978.52
2022-11-22T06:14:02.892Z,978.50
2022-11-22T06:15:02.806Z,978.53
2022-11-22T06:16:02.781Z,978.53
2022-11-22T06:17:02.770Z,978.54
2022-11-22T06:18:02.776Z,978.57
2022-11-22T06:19:02.775Z,978.56
2022-11-22T06:20:05.805Z,978.58
2022-11-22T06:21:02.737Z,978.63
2022-11-22T06:22:02.749Z,978.64
2022-11-22T06:23:02.723Z,978.63
2022-11-22T06:24:02.710Z,978.64
2022-11-22T06:25:02.710Z,978.67
2022-11-22T06:26:02.722Z,978.71
2022-11-22T06:27:02.644Z,978.65
2022-11-22T06:28:02.679Z,978.77
2022-11-22T06:29:02.628Z,978.81
2022-11-22T06:30:02.620Z,978.79
2022-11-22T06:31:02.630Z,978.80
2022-11-22T06:32:04.044Z,978.82
2022-11-22T06:33:02.614Z,978.78
2022-11-22T06:34:02.567Z,978.74
2022-11-22T06:35:02.558Z,978.76
2022-11-22T06:36:02.606Z,978.78
2022-11-22T06:37:02.531Z,978.76
2022-11-22T06:38:02.577Z,978.79
2022-11-22T06:39:02.516Z,978.80
2022-11-22T06:40:02.519Z,978.85
2022-11-22T06:41:02.494Z,978.84
2022-11-22T06:42:02.506Z,978.92
2022-11-22T06:43:02.469Z,978.99
2022-11-22T06:44:02.496Z,979.03
2022-11-22T06:45:02.446Z,979.12
2022-11-22T06:46:02.437Z,979.09
2022-11-22T06:47:02.418Z,978.98
2022-11-22T06:48:02.460Z,979.03
2022-11-22T06:49:02.392Z,979.01
2022-11-22T06:50:02.390Z,979.02
2022-11-22T06:51:02.392Z,979.06
2022-11-22T06:52:02.373Z,979.08
2022-11-22T06:53:02.356Z,979.06
2022-11-22T06:54:02.411Z,979.05
2022-11-22T06:55:07.687Z,979.05
2022-11-22T06:56:03.404Z,979.06
2022-11-22T06:57:02.324Z,979.08
2022-11-22T06:58:02.299Z,979.05
2022-11-22T06:59:02.281Z,979.10
2022-11-22T07:00:02.328Z,979.03
2022-11-22T07:01:02.313Z,979.07
2022-11-22T07:02:06.483Z,979.08
2022-11-22T07:03:02.263Z,979.08
2022-11-22T07:04:02.222Z,979.03
2022-11-22T07:05:24.652Z,979.10
2022-11-22T07:06:03.222Z,979.11
2022-11-22T07:07:02.290Z,979.10
2022-11-22T07:08:07.903Z,979.13
2022-11-22T07:09:03.161Z,979.12
2022-11-22T07:10:02.208Z,979.10
2022-11-22T07:11:02.173Z,979.13
2022-11-22T07:12:02.143Z,979.14
2022-11-22T07:13:02.123Z,979.11
2022-11-22T07:14:07.659Z,979.19
2022-11-22T07:15:03.095Z,979.15
2022-11-22T07:16:02.072Z,979.14
2022-11-22T07:17:02.120Z,979.22
2022-11-22T07:18:02.060Z,979.24
2022-11-22T07:19:02.078Z,979.27
2022-11-22T07:20:02.107Z,979.25
2022-11-22T07:21:02.049Z,979.28
2022-11-22T07:22:02.012Z,979.25
2022-11-22T07:23:02.052Z,979.29
2022-11-22T07:24:02.071Z,979.28
2022-11-22T07:25:02.027Z,979.36
2022-11-22T07:26:01.979Z,979.32
2022-11-22T07:27:01.959Z,979.38
2022-11-22T07:28:01.953Z,979.39
2022-11-22T07:29:02.016Z,979.37
2022-11-22T07:30:01.937Z,979.39
2022-11-22T07:31:01.985Z,979.46
2022-11-22T07:32:01.922Z,979.45
2022-11-22T07:33:01.935Z,979.46
2022-11-22T07:34:01.893Z,979.52
2022-11-22T07:35:01.984Z,979.48
2022-11-22T07:36:01.875Z,979.49
2022-11-22T07:37:07.575Z,979.48
2022-11-22T07:38:02.827Z,979.50
2022-11-22T07:39:01.905Z,979.54
2022-11-22T07:40:01.847Z,979.58
2022-11-22T07:41:01.827Z,979.62
2022-11-22T07:42:01.874Z,979.60
2022-11-22T07:43:01.885Z,979.60
2022-11-22T07:44:01.852Z,979.54
2022-11-22T07:45:01.836Z,979.57
2022-11-22T07:46:01.733Z,979.59
2022-11-22T07:47:01.770Z,979.65
2022-11-22T07:48:01.706Z,979.58
2022-11-22T07:49:01.695Z,979.63
2022-11-22T07:50:01.699Z,979.66
2022-11-22T07:51:01.677Z,979.65
2022-11-22T07:52:01.699Z,979.63
2022-11-22T07:53:01.656Z,979.64
2022-11-22T07:54:02.136Z,979.62
2022-11-22T07:55:01.657Z,979.58
2022-11-22T07:56:01.616Z,979.60
2022-11-22T07:57:01.610Z,979.54
2022-11-22T07:58:01.618Z,979.60
2022-11-22T07:59:01.601Z,979.71
2022-11-22T08:00:01.606Z,979.65
2022-11-22T08:01:01.562Z,979.68
2022-11-22T08:02:01.579Z,979.64
2022-11-22T08:03:01.542Z,979.68
2022-11-22T08:04:01.582Z,979.71
2022-11-22T08:05:01.518Z,979.68
2022-11-22T08:06:01.525Z,979.69
2022-11-22T08:07:01.498Z,979.71
2022-11-22T08:08:01.478Z,979.74
2022-11-22T08:09:02.385Z,979.79
2022-11-22T08:10:01.479Z,979.81
2022-11-22T08:11:01.448Z,979.79
2022-11-22T08:12:01.446Z,979.76
2022-11-22T08:13:01.417Z,979.83
2022-11-22T08:14:01.431Z,979.83
2022-11-22T08:15:01.418Z,979.87
2022-11-22T08:16:05.133Z,979.89
2022-11-22T08:17:01.369Z,979.91
2022-11-22T08:18:01.370Z,979.94
2022-11-22T08:19:01.366Z,980.01
2022-11-22T08:20:01.353Z,979.97
2022-11-22T08:21:01.368Z,979.98
2022-11-22T08:22:01.331Z,980.05
2022-11-22T08:23:01.321Z,979.99
2022-11-22T08:24:01.289Z,980.03
2022-11-22T08:25:01.297Z,979.99
2022-11-22T08:26:01.284Z,979.96
2022-11-22T08:27:01.299Z,980.00
2022-11-22T08:28:01.265Z,979.99
2022-11-22T08:29:01.239Z,980.00
2022-11-22T08:30:01.233Z,980.00
2022-11-22T08:31:01.212Z,979.93
2022-11-22T08:32:01.226Z,979.95
2022-11-22T08:33:01.313Z,980.04
2022-11-22T08:34:01.201Z,980.03
2022-11-22T08:35:01.177Z,980.02
2022-11-22T08:36:01.192Z,980.02
2022-11-22T08:37:01.140Z,980.05
2022-11-22T08:38:01.191Z,980.04
2022-11-22T08:39:01.141Z,980.04
2022-11-22T08:40:01.144Z,980.01
2022-11-22T08:41:01.114Z,980.09
2022-11-22T08:42:01.091Z,980.06
2022-11-22T08:43:01.070Z,980.18
2022-11-22T08:44:01.091Z,980.21
2022-11-22T08:45:01.051Z,980.27
2022-11-22T08:46:01.051Z,980.26
2022-11-22T08:47:01.021Z,980.26
2022-11-22T08:48:01.022Z,980.19
2022-11-22T08:49:01.044Z,980.23
2022-11-22T08:50:01.024Z,980.30
2022-11-22T08:51:00.983Z,980.29
2022-11-22T08:52:00.975Z,980.26
2022-11-22T08:53:00.958Z,980.34
2022-11-22T08:54:00.954Z,980.23
2022-11-22T08:55:00.984Z,980.25
2022-11-22T08:56:00.930Z,980.25
2022-11-22T08:57:00.928Z,980.29
2022-11-22T08:58:00.906Z,980.21
2022-11-22T08:59:00.923Z,980.24
2022-11-22T09:00:00.873Z,980.28
2022-11-22T09:01:00.935Z,980.31
2022-11-22T09:02:00.926Z,980.30
2022-11-22T09:03:00.867Z,980.30
2022-11-22T09:04:00.842Z,980.27
2022-11-22T09:05:00.824Z,980.29
2022-11-22T09:08:25.215Z,980.36
2022-11-22T09:09:35.926Z,980.39
2022-11-22T09:10:01.781Z,980.34
2022-11-22T09:11:00.764Z,980.38
2022-11-22T09:12:00.795Z,980.41
2022-11-22T09:13:00.734Z,980.44
2022-11-22T09:14:00.771Z,980.43
2022-11-22T09:15:00.725Z,980.40
2022-11-22T09:16:00.695Z,980.46
2022-11-22T09:17:00.702Z,980.41
2022-11-22T09:18:00.704Z,980.42
2022-11-22T09:19:00.675Z,980.47
2022-11-22T09:20:00.646Z,980.39
2022-11-22T09:21:00.634Z,980.36
2022-11-22T09:22:00.626Z,980.44
2022-11-22T09:23:00.637Z,980.47
2022-11-22T09:24:00.613Z,980.49
2022-11-22T09:25:00.607Z,980.53
2022-11-22T09:26:00.581Z,980.55
2022-11-22T09:27:00.587Z,980.52
2022-11-22T09:28:00.569Z,980.47
2022-11-22T09:29:00.645Z,980.48
2022-11-22T09:30:00.567Z,980.43
2022-11-22T09:31:00.536Z,980.48
2022-11-22T09:32:00.509Z,980.50
2022-11-22T09:33:00.535Z,980.52
2022-11-22T09:34:00.522Z,980.59
2022-11-22T09:35:00.503Z,980.55
2022-11-22T09:36:00.469Z,980.56
2022-11-22T09:37:00.478Z,980.52
2022-11-22T09:38:00.448Z,980.50
2022-11-22T09:39:00.452Z,980.51
2022-11-22T09:40:00.486Z,980.46
2022-11-22T09:41:00.411Z,980.41
2022-11-22T09:42:00.429Z,980.44
2022-11-22T09:43:00.440Z,980.37
2022-11-22T09:44:00.383Z,980.38
2022-11-22T09:45:00.369Z,980.33
2022-11-22T09:46:00.400Z,980.33
2022-11-22T09:47:00.356Z,980.24
2022-11-22T09:48:03.086Z,980.30
2022-11-22T09:49:01.362Z,980.26
2022-11-22T09:50:00.310Z,980.24
2022-11-22T09:51:00.299Z,980.33
2022-11-22T09:52:00.360Z,980.33
2022-11-22T09:53:00.288Z,980.34
2022-11-22T09:54:00.278Z,980.38
2022-11-22T09:55:00.287Z,980.40
2022-11-22T09:56:00.239Z,980.37
2022-11-22T09:57:00.231Z,980.41
2022-11-22T09:58:00.257Z,980.49
2022-11-22T09:59:00.230Z,980.42
2022-11-22T10:00:00.208Z,980.48
2022-11-22T10:01:00.229Z,980.44
2022-11-22T10:02:11.636Z,980.40
2022-11-22T10:03:01.224Z,980.48
2022-11-22T10:04:00.149Z,980.45
2022-11-22T10:05:00.160Z,980.51
2022-11-22T10:06:00.218Z,980.49
2022-11-22T10:07:00.127Z,980.47
2022-11-22T10:08:00.107Z,980.46
2022-11-22T10:09:00.112Z,980.43
2022-11-22T10:10:00.088Z,980.42
2022-11-22T10:11:00.103Z,980.36
2022-11-22T10:12:00.085Z,980.35
2022-11-22T10:13:00.056Z,980.33
2022-11-22T10:14:00.033Z,980.34
2022-11-22T10:15:00.062Z,980.35
2022-11-22T10:16:00.033Z,980.32
2022-11-22T10:17:00.032Z,980.37
2022-11-22T10:18:00.013Z,980.37
2022-11-22T10:18:59.984Z,980.31
2022-11-22T10:19:59.994Z,980.28
2022-11-22T10:20:59.963Z,980.22
2022-11-22T10:21:59.945Z,980.26
2022-11-22T10:22:59.943Z,980.28
2022-11-22T10:23:59.949Z,980.29
2022-11-22T10:24:59.920Z,980.26
2022-11-22T10:25:59.933Z,980.24
2022-11-22T10:26:59.886Z,980.21
2022-11-22T10:28:01.021Z,980.21
2022-11-22T10:28:59.855Z,980.15
2022-11-22T10:29:59.891Z,980.16
2022-11-22T10:30:59.870Z,980.15
2022-11-22T10:31:59.855Z,980.12
2022-11-22T10:32:59.826Z,980.14
2022-11-22T10:33:59.805Z,980.19
2022-11-22T10:34:59.794Z,980.13
2022-11-22T10:35:59.790Z,980.21
2022-11-22T10:36:59.797Z,980.22
2022-11-22T10:37:59.745Z,980.16
2022-11-22T10:38:59.746Z,980.19
2022-11-22T10:39:59.778Z,980.13
2022-11-22T10:40:59.726Z,980.17
2022-11-22T10:41:59.776Z,980.13
2022-11-22T10:42:59.706Z,980.10
2022-11-22T10:43:59.686Z,980.11
2022-11-22T10:44:59.677Z,980.13
2022-11-22T10:46:00.407Z,980.04
2022-11-22T10:46:59.652Z,980.11
2022-11-22T10:47:59.697Z,980.07
2022-11-22T10:48:59.625Z,980.07
2022-11-22T10:49:59.642Z,980.01
2022-11-22T10:50:59.599Z,980.09
2022-11-22T10:51:59.595Z,980.03
2022-11-22T10:52:59.598Z,980.10
2022-11-22T10:54:03.470Z,980.09
2022-11-22T10:54:59.592Z,980.05
2022-11-22T10:55:59.544Z,980.10
2022-11-22T10:56:59.554Z,980.13
2022-11-22T10:57:59.527Z,980.13
2022-11-22T10:58:59.503Z,980.18
2022-11-22T10:59:59.512Z,980.13
2022-11-22T11:00:59.541Z,980.19
2022-11-22T11:01:59.471Z,980.24
2022-11-22T11:02:59.462Z,980.29
2022-11-22T11:03:59.465Z,980.23
2022-11-22T11:04:59.478Z,980.22
2022-11-22T11:07:12.819Z,980.18
2022-11-22T11:08:22.146Z,980.21
2022-11-22T11:09:54.946Z,980.14
2022-11-22T11:10:11.538Z,980.27
2022-11-22T11:11:00.364Z,980.22
2022-11-22T11:11:59.362Z,980.23
2022-11-22T11:12:59.358Z,980.23
2022-11-22T11:13:59.332Z,980.23
2022-11-22T11:14:59.325Z,980.27
2022-11-22T11:15:59.344Z,980.23
2022-11-22T11:16:59.301Z,980.20
2022-11-22T11:17:59.296Z,980.19
2022-11-22T11:18:59.272Z,980.17
2022-11-22T11:19:59.273Z,980.18
2022-11-22T11:20:59.313Z,980.28
2022-11-22T11:21:59.256Z,980.29
2022-11-22T11:23:14.204Z,980.24
2022-11-22T11:24:00.234Z,980.24
2022-11-22T11:24:59.208Z,980.27
2022-11-22T11:25:59.193Z,980.11
2022-11-22T11:26:59.223Z,980.23
2022-11-22T11:27:59.198Z,980.21
2022-11-22T11:28:59.163Z,980.39
2022-11-22T11:29:59.143Z,980.26
2022-11-22T11:30:59.142Z,980.29
2022-11-22T11:31:59.162Z,980.29
2022-11-22T11:32:59.137Z,980.25
2022-11-22T11:33:59.162Z,980.29
2022-11-22T11:34:59.085Z,980.25
2022-11-22T11:35:59.112Z,980.26
2022-11-22T11:36:59.066Z,980.20
2022-11-22T11:37:59.095Z,980.24
2022-11-22T11:38:59.065Z,980.23
2022-11-22T11:39:59.049Z,980.25
2022-11-22T11:40:59.036Z,980.21
2022-11-22T11:41:59.005Z,980.19
2022-11-22T11:42:59.003Z,980.18
2022-11-22T11:43:59.015Z,980.15
2022-11-22T11:44:58.995Z,980.20
2022-11-22T11:45:58.980Z,980.15
2022-11-22T11:46:58.956Z,980.16
2022-11-22T11:47:58.946Z,980.13
2022-11-22T11:48:58.926Z,980.18
2022-11-22T11:49:58.978Z,980.13
2022-11-22T11:50:58.909Z,980.18
2022-11-22T11:51:58.899Z,980.16
2022-11-22T11:52:58.877Z,980.08
2022-11-22T11:53:58.877Z,980.11
2022-11-22T11:54:58.857Z,980.10
2022-11-22T11:55:58.888Z,980.07
2022-11-22T11:56:58.868Z,980.04
2022-11-22T11:57:58.827Z,980.11
2022-11-22T11:58:58.818Z,980.10
2022-11-22T11:59:58.827Z,980.06
2022-11-22T12:00:58.808Z,980.01
2022-11-22T12:01:58.912Z,980.00
2022-11-22T12:02:58.768Z,980.05
2022-11-22T12:03:58.763Z,979.95
2022-11-22T12:04:58.765Z,979.96
2022-11-22T12:05:58.731Z,979.98
2022-11-22T12:07:02.961Z,980.00
2022-11-22T12:07:58.819Z,980.02
2022-11-22T12:08:58.703Z,979.98
2022-11-22T12:09:58.697Z,979.97
2022-11-22T12:10:58.706Z,980.04
2022-11-22T12:11:58.709Z,980.01
2022-11-22T12:13:04.020Z,980.10
2022-11-22T12:14:19.642Z,980.03
2022-11-22T12:15:59.631Z,979.99
2022-11-22T12:16:58.622Z,979.95
2022-11-22T12:17:58.618Z,980.00
2022-11-22T12:18:58.615Z,980.00
2022-11-22T12:19:58.562Z,979.98
2022-11-22T12:20:58.587Z,980.07
2022-11-22T12:21:58.555Z,980.05
2022-11-22T12:22:58.533Z,980.05
2022-11-22T12:24:13.520Z,980.03
2022-11-22T12:25:24.743Z,980.02
2022-11-22T12:25:59.508Z,979.93
2022-11-22T12:26:58.504Z,979.96
2022-11-22T12:27:58.484Z,979.96
2022-11-22T12:28:58.608Z,979.91
2022-11-22T12:29:58.462Z,979.94
2022-11-22T12:30:58.483Z,979.86
2022-11-22T12:31:58.422Z,979.90